Terminal Aerodrome Forecast
Issued by NWS Cleveland, OH

Home | Current Version | Previous Version | Graphics & Text | Print | Product List | Glossary On
Versions: 1 2 3 4 5 6 7 8 9 10 11 12 13 14 15 16 17 18 19 20 21 22 23 24 25 26 27 28 29
000
FTUS41 KCLE 241800 AAA
TAFTOL
TAF AMD
KTOL 241858Z 2419/2518 25010KT 5SM BR OVC010
     FM250100 26006KT 3SM BR VCSH BKN010 OVC030
     FM250700 26006KT 3SM -SHSN BR OVC008
     FM251100 02005KT 1SM -SN BR OVC006=

USA.gov is the U.S. government's official web portal to all federal, state and local government web resources and services.